Terminal Aerodrome Forecast
Issued by NWS

Home | Current Version | Previous Version | Text Only | Print | Product List | Glossary On
Versions: 1 2 3 4 5 6 7 8 9 10 11 12 13 14 15 16 17 18 19 20 21 22 23 24 25 26 27 28 29 30 31 32 33
000
FTAK31 PANC 221446 AAA
TAFAEN
TAF AMD
PAEN 221446Z 2215/2312 03005KT P6SM VCSH SCT006 BKN015 OVC025
      TEMPO 2215/2218 BKN006
     FM221800 03005KT P6SM -SHSN FEW006 SCT015 OVC025=

USA.gov is the U.S. government's official web portal to all federal, state and local government web resources and services.